Time;durP1;ratioP1;P1;durP2;ratioP2;P2;SDS_P1;SDS_P2;PMS_P1;PMS_P2;Temp;Humidity;BMP_temperature;BMP_pressure;BME280_temperature;BME280_humidity;BME280_pressure;Samples;Min_cycle;Max_cycle;Signal;HPM_P1;HPM_P2
2022/04/13 00:02:19;;;;;;;3.47;2.37;;;;;;;13.78;60.33;95285.81;5036840;28;20182;-81
2022/04/13 00:04:45;;;;;;;4.73;2.37;;;;;;;13.75;60.57;95293.97;5036507;28;20272;-83
2022/04/13 00:07:10;;;;;;;3.60;2.20;;;;;;;13.77;60.34;95294.59;5036714;28;20198;-82
2022/04/13 00:09:35;;;;;;;2.63;2.10;;;;;;;13.68;60.66;95293.03;5036800;28;20592;-83
2022/04/13 00:12:01;;;;;;;4.57;2.63;;;;;;;13.69;60.97;95296.44;5036128;28;20189;-82
2022/04/13 00:14:26;;;;;;;4.13;2.20;;;;;;;13.65;60.96;95296.00;5057697;28;20259;-81
2022/04/13 00:16:51;;;;;;;5.27;2.37;;;;;;;13.65;60.93;95296.00;5053567;28;20258;-82
2022/04/13 00:19:17;;;;;;;7.03;2.17;;;;;;;13.66;60.68;95291.59;5051954;28;20178;-82
2022/04/13 00:21:43;;;;;;;3.83;2.60;;;;;;;13.57;61.11;95299.47;5053008;28;20626;-82
2022/04/13 00:24:08;;;;;;;5.23;2.80;;;;;;;13.53;61.61;95305.22;5053495;28;20178;-82
2022/04/13 00:26:34;;;;;;;3.93;2.77;;;;;;;13.49;61.71;95299.50;5053344;28;20210;-81
2022/04/13 00:28:59;;;;;;;5.23;2.13;;;;;;;13.46;62.32;95301.66;5053226;28;20217;-82
2022/04/13 00:31:24;;;;;;;3.13;2.20;;;;;;;13.44;61.99;95308.84;5052595;28;20186;-81
2022/04/13 00:33:50;;;;;;;3.67;2.30;;;;;;;13.46;62.21;95304.25;5047000;28;20193;-82
2022/04/13 00:36:15;;;;;;;5.20;2.37;;;;;;;13.40;62.06;95303.13;5035982;28;20686;-82
2022/04/13 00:38:40;;;;;;;4.83;2.00;;;;;;;13.36;62.57;95303.66;5036202;28;20190;-83
2022/04/13 00:41:05;;;;;;;3.00;2.17;;;;;;;13.31;62.72;95307.56;5052628;28;20201;-82
2022/04/13 00:43:31;;;;;;;3.03;2.43;;;;;;;13.26;63.02;95307.28;5036089;28;20287;-82
2022/04/13 00:45:56;;;;;;;2.57;2.37;;;;;;;13.31;62.61;95304.16;5036477;28;20178;-81
2022/04/13 00:48:29;;;;;;;3.30;2.30;;;;;;;13.33;62.35;95304.78;5036023;28;20208;-82
2022/04/13 00:50:54;;;;;;;3.20;2.40;;;;;;;13.43;61.67;95302.81;5036283;28;20177;-82
2022/04/13 00:53:20;;;;;;;3.80;2.33;;;;;;;13.47;61.58;95306.69;5054289;28;20195;-83
2022/04/13 00:55:45;;;;;;;2.93;2.33;;;;;;;13.43;61.77;95310.66;5055889;28;20211;-81
2022/04/13 00:58:14;;;;;;;5.10;2.83;;;;;;;13.55;61.10;95313.66;5072813;28;20201;-82
2022/04/13 01:00:48;;;;;;;4.60;2.80;;;;;;;13.54;61.05;95314.66;5072487;28;20180;-82
2022/04/13 01:03:15;;;;;;;5.57;2.13;;;;;;;13.55;61.25;95313.66;5056269;28;20276;-82
2022/04/13 01:05:40;;;;;;;5.43;2.40;;;;;;;13.55;61.31;95316.28;5072478;28;20223;-82
2022/04/13 01:08:06;;;;;;;6.33;2.50;;;;;;;13.52;61.72;95314.03;5072218;28;20205;-82
2022/04/13 01:10:32;;;;;;;3.53;2.50;;;;;;;13.39;62.05;95317.16;5052396;28;20259;-82
2022/04/13 01:12:57;;;;;;;4.10;2.47;;;;;;;13.39;61.93;95311.13;5051867;28;20223;-82
2022/04/13 01:15:22;;;;;;;4.00;2.93;;;;;;;13.39;61.98;95316.34;5035871;28;20205;-82
2022/04/13 01:17:48;;;;;;;3.97;2.33;;;;;;;13.30;62.30;95315.56;5052224;28;20224;-82
2022/04/13 01:20:16;;;;;;;3.93;2.37;;;;;;;13.29;62.49;95316.56;5050780;28;20711;-82
2022/04/13 01:22:41;;;;;;;2.90;2.13;;;;;;;13.22;62.86;95326.84;5051647;28;20618;-82
2022/04/13 01:25:07;;;;;;;3.27;2.10;;;;;;;13.24;62.84;95322.28;5051839;28;20178;-83
2022/04/13 01:27:32;;;;;;;6.33;2.20;;;;;;;13.15;62.83;95325.06;5052831;28;20287;-82
2022/04/13 01:29:58;;;;;;;3.97;2.10;;;;;;;13.05;63.52;95330.47;5035183;28;20219;-82
2022/04/13 01:32:23;;;;;;;4.10;2.47;;;;;;;12.98;63.48;95326.91;5034746;28;20218;-82
2022/04/13 01:34:50;;;;;;;3.87;2.17;;;;;;;12.92;63.66;95331.00;5034901;28;20733;-81
2022/04/13 01:37:16;;;;;;;3.83;1.83;;;;;;;12.83;63.57;95328.59;5035280;28;20213;-81
2022/04/13 01:39:41;;;;;;;2.80;2.10;;;;;;;12.74;63.81;95333.00;5034975;28;20178;-83
2022/04/13 01:42:07;;;;;;;3.40;2.10;;;;;;;12.73;63.55;95331.38;5034632;28;20204;-83
2022/04/13 01:44:32;;;;;;;4.30;2.43;;;;;;;12.66;63.75;95331.22;5051205;28;20217;-82
2022/04/13 01:46:57;;;;;;;5.70;2.23;;;;;;;12.63;63.67;95341.13;5034998;28;20205;-82
2022/04/13 01:49:23;;;;;;;2.20;2.00;;;;;;;12.57;63.64;95340.03;5035347;28;20668;-82
2022/04/13 01:51:48;;;;;;;4.43;2.00;;;;;;;12.53;63.38;95346.53;5050913;28;20671;-82
2022/04/13 01:54:13;;;;;;;4.70;2.80;;;;;;;12.50;63.33;95346.88;5034898;28;20178;-82
2022/04/13 01:56:39;;;;;;;3.50;1.70;;;;;;;12.54;62.94;95353.34;5051512;28;20232;-82
2022/04/13 01:59:04;;;;;;;4.87;2.20;;;;;;;12.56;62.11;95351.44;5052342;28;20301;-82
2022/04/13 02:01:31;;;;;;;7.30;2.30;;;;;;;12.58;61.68;95349.47;5050600;28;20277;-83
2022/04/13 02:03:56;;;;;;;4.47;2.23;;;;;;;12.61;61.44;95356.94;5035236;28;20276;-80
2022/04/13 02:06:22;;;;;;;4.73;2.30;;;;;;;12.69;61.03;95346.50;5035252;28;20251;-82
2022/04/13 02:08:48;;;;;;;7.03;2.50;;;;;;;12.66;61.27;95356.47;5035050;28;20177;-82
2022/04/13 02:11:14;;;;;;;5.53;2.67;;;;;;;12.69;61.38;95354.31;5051158;28;20170;-82
2022/04/13 02:13:39;;;;;;;5.73;3.00;;;;;;;12.70;61.36;95358.56;5034842;28;20207;-82
2022/04/13 02:16:05;;;;;;;5.40;2.60;;;;;;;12.68;61.18;95360.53;5052436;28;20298;-81
2022/04/13 02:18:31;;;;;;;7.67;3.10;;;;;;;12.62;61.38;95361.16;5051265;28;20185;-82
2022/04/13 02:20:57;;;;;;;9.00;3.00;;;;;;;12.59;61.27;95358.91;5032827;28;20190;-81
2022/04/13 02:23:23;;;;;;;7.93;3.33;;;;;;;12.56;61.06;95359.25;5050747;28;20288;-82
2022/04/13 02:25:48;;;;;;;6.73;3.10;;;;;;;12.52;60.89;95354.50;5051182;28;20257;-82
2022/04/13 02:28:13;;;;;;;7.93;3.37;;;;;;;12.48;59.98;95362.66;5034543;28;20202;-81
2022/04/13 02:30:38;;;;;;;3.10;2.47;;;;;;;12.50;59.45;95356.47;5034731;28;20207;-83
2022/04/13 02:33:04;;;;;;;4.27;2.23;;;;;;;12.49;59.42;95363.47;5033907;28;20177;-82
2022/04/13 02:35:29;;;;;;;6.60;2.03;;;;;;;12.48;58.48;95359.25;5050927;28;20205;-81
2022/04/13 02:37:55;;;;;;;5.23;2.40;;;;;;;12.47;57.89;95353.22;5034172;28;20202;-82
2022/04/13 02:40:20;;;;;;;6.00;2.17;;;;;;;12.46;56.59;95351.59;5050950;28;20185;-82
2022/04/13 02:42:46;;;;;;;5.33;1.83;;;;;;;12.47;56.50;95352.41;5033559;28;20649;-81
2022/04/13 02:45:11;;;;;;;7.40;1.80;;;;;;;12.40;56.13;95356.63;5034287;28;20173;-82
2022/04/13 02:47:36;;;;;;;4.53;1.87;;;;;;;12.37;55.81;95349.97;5049703;28;20197;-82
2022/04/13 02:50:03;;;;;;;3.07;1.90;;;;;;;12.41;55.14;95351.25;5034069;28;20173;-81
2022/04/13 02:52:28;;;;;;;5.80;2.30;;;;;;;12.39;54.14;95355.00;5050077;28;20231;-82
2022/04/13 02:54:55;;;;;;;3.73;1.60;;;;;;;12.39;53.24;95355.00;5034526;28;20206;-82
2022/04/13 02:57:20;;;;;;;3.27;1.47;;;;;;;12.35;53.22;95349.31;5036183;28;20197;-82
2022/04/13 02:59:46;;;;;;;3.77;1.63;;;;;;;12.31;53.40;95350.63;5038331;28;20668;-81
2022/04/13 03:02:14;;;;;;;2.40;1.43;;;;;;;12.29;53.34;95343.97;5037599;28;20235;-82
2022/04/13 03:04:42;;;;;;;4.53;1.83;;;;;;;12.20;53.00;95345.75;5038068;28;20329;-82
2022/04/13 03:07:07;;;;;;;3.87;1.40;;;;;;;12.18;52.81;95348.47;5038173;28;20200;-82
2022/04/13 03:09:33;;;;;;;2.17;1.23;;;;;;;12.14;52.83;95343.78;5055137;28;20178;-82
2022/04/13 03:11:58;;;;;;;3.83;1.60;;;;;;;12.10;52.59;95345.91;5037457;28;20646;-82
2022/04/13 03:14:23;;;;;;;2.97;1.37;;;;;;;12.06;53.18;95339.38;5037711;28;20178;-82
2022/04/13 03:16:49;;;;;;;2.00;1.50;;;;;;;12.05;53.91;95348.16;5054601;28;20198;-82
2022/04/13 03:19:14;;;;;;;2.67;1.50;;;;;;;12.00;53.20;95344.41;5037802;28;20236;-82
2022/04/13 03:21:39;;;;;;;5.37;1.37;;;;;;;11.96;53.18;95341.31;5037118;28;20192;-82
2022/04/13 03:24:05;;;;;;;4.97;1.50;;;;;;;11.95;52.84;95349.28;5037676;28;20177;-80
2022/04/13 03:26:30;;;;;;;3.70;1.57;;;;;;;11.88;52.77;95352.53;5037716;28;20190;-82
2022/04/13 03:28:55;;;;;;;3.93;1.30;;;;;;;11.86;52.45;95345.88;5054233;28;20201;-82
2022/04/13 03:31:22;;;;;;;6.47;1.50;;;;;;;11.84;52.23;95347.81;5053700;28;20178;-82
2022/04/13 03:33:47;;;;;;;3.70;1.40;;;;;;;11.88;51.02;95349.94;5037319;28;20182;-82
2022/04/13 03:36:13;;;;;;;2.90;1.33;;;;;;;11.87;51.16;95350.09;5037079;28;20209;-82
2022/04/13 03:38:38;;;;;;;4.20;1.43;;;;;;;11.87;51.19;95350.09;5054047;28;20181;-83
2022/04/13 03:41:03;;;;;;;4.73;1.20;;;;;;;11.87;50.91;95353.50;5037086;28;20254;-83
2022/04/13 03:43:29;;;;;;;4.53;1.70;;;;;;;11.84;51.40;95347.81;5053385;28;20174;-83
2022/04/13 03:45:54;;;;;;;1.77;1.37;;;;;;;11.81;51.10;95353.31;5037467;28;20184;-83
2022/04/13 03:48:20;;;;;;;3.30;1.53;;;;;;;11.76;51.43;95343.38;5035711;28;20205;-82
2022/04/13 03:50:50;;;;;;;5.50;1.90;;;;;;;11.68;51.92;95343.38;5037029;28;20541;-82
2022/04/13 03:53:15;;;;;;;5.50;1.17;;;;;;;11.67;52.48;95353.94;5054475;28;20170;-83
2022/04/13 03:55:40;;;;;;;2.30;1.70;;;;;;;11.65;52.16;95359.25;5036886;28;20760;-82
2022/04/13 03:58:05;;;;;;;3.10;1.50;;;;;;;11.57;52.48;95343.63;5044500;28;20217;-80
2022/04/13 04:00:31;;;;;;;2.77;1.60;;;;;;;11.62;51.81;95341.38;5042319;28;20186;-83
2022/04/13 04:02:57;;;;;;;2.23;1.40;;;;;;;11.57;51.70;95349.69;5068413;28;20598;-83
2022/04/13 04:05:22;;;;;;;3.30;1.43;;;;;;;11.54;52.08;95342.19;5035676;28;20288;-83
2022/04/13 04:07:49;;;;;;;4.60;1.37;;;;;;;11.50;51.80;95351.28;5052048;28;20193;-82
2022/04/13 04:10:14;;;;;;;3.87;1.60;;;;;;;11.50;51.62;95347.88;5035347;28;20564;-81
2022/04/13 04:12:40;;;;;;;3.67;1.10;;;;;;;11.51;51.54;95347.69;5035319;28;20181;-83
2022/04/13 04:15:09;;;;;;;4.97;1.57;;;;;;;11.47;51.95;95348.16;5052733;28;20648;-83
2022/04/13 04:17:35;;;;;;;5.13;1.67;;;;;;;11.41;52.85;95351.41;5053718;28;20206;-82
2022/04/13 04:20:00;;;;;;;3.87;1.20;;;;;;;11.32;52.94;95353.97;5035858;28;20269;-82
2022/04/13 04:22:26;;;;;;;3.77;1.40;;;;;;;11.23;53.97;95347.13;5053257;28;20182;-83
2022/04/13 04:24:51;;;;;;;2.97;1.40;;;;;;;11.16;54.38;95353.09;5035271;28;20181;-82
2022/04/13 04:27:16;;;;;;;4.83;1.70;;;;;;;11.07;54.77;95355.66;5052178;28;20206;-80
2022/04/13 04:29:42;;;;;;;3.50;1.93;;;;;;;10.99;55.56;95358.22;5035648;28;20182;-81
2022/04/13 04:32:07;;;;;;;5.07;2.03;;;;;;;10.94;55.76;95350.06;5051590;28;20197;-82
2022/04/13 04:34:33;;;;;;;4.03;1.90;;;;;;;10.91;56.07;95357.34;5052090;28;20201;-81
2022/04/13 04:36:59;;;;;;;3.03;1.80;;;;;;;10.92;55.81;95356.38;5069423;28;20710;-80
2022/04/13 04:39:24;;;;;;;4.13;1.70;;;;;;;10.88;56.38;95353.28;5072325;28;20173;-82
2022/04/13 04:41:49;;;;;;;3.83;2.00;;;;;;;10.88;56.21;95357.66;5055025;28;20177;-82
2022/04/13 04:44:14;;;;;;;3.00;1.80;;;;;;;10.84;56.37;95354.53;5055630;28;20188;-82
2022/04/13 04:46:40;;;;;;;3.17;1.87;;;;;;;10.84;56.34;95357.13;5055202;28;20765;-81
2022/04/13 04:49:06;;;;;;;3.33;1.50;;;;;;;10.86;56.12;95354.38;5055117;28;20177;-82
2022/04/13 04:51:31;;;;;;;5.10;1.50;;;;;;;10.90;55.95;95355.72;5071315;28;20181;-82
2022/04/13 04:53:57;;;;;;;5.87;1.80;;;;;;;10.96;55.38;95355.13;5072074;28;20189;-83
2022/04/13 04:56:23;;;;;;;5.13;1.47;;;;;;;11.01;55.63;95360.66;5055070;28;20262;-83
2022/04/13 04:58:48;;;;;;;3.37;1.50;;;;;;;11.09;55.43;95352.09;5072168;28;20576;-83
2022/04/13 05:01:13;;;;;;;3.17;1.50;;;;;;;11.20;54.75;95360.41;5054892;28;20245;-81
2022/04/13 05:03:39;;;;;;;2.93;1.40;;;;;;;11.31;54.79;95364.53;5072208;28;20181;-85
2022/04/13 05:06:04;;;;;;;3.00;1.60;;;;;;;11.42;54.19;95361.66;5060500;28;20237;-82
2022/04/13 05:08:29;;;;;;;3.73;1.40;;;;;;;11.45;54.27;95360.50;5037591;28;20192;-82
2022/04/13 05:10:55;;;;;;;2.47;1.50;;;;;;;11.63;53.35;95369.84;5050968;28;20192;-83
2022/04/13 05:13:20;;;;;;;4.53;1.57;;;;;;;11.77;53.15;95375.41;5068877;28;20196;-84
2022/04/13 05:15:46;;;;;;;5.67;1.53;;;;;;;11.89;52.46;95367.16;5055227;28;20198;-83
2022/04/13 05:18:11;;;;;;;2.63;1.53;;;;;;;11.99;52.43;95374.00;5043953;28;20232;-85
2022/04/13 05:20:37;;;;;;;2.73;1.30;;;;;;;12.10;52.62;95368.50;5060123;28;20188;-85
2022/04/13 05:23:02;;;;;;;2.83;1.40;;;;;;;12.21;52.23;95383.81;5060681;28;20213;-85
2022/04/13 05:25:27;;;;;;;4.60;1.37;;;;;;;12.26;52.31;95381.53;5059180;28;20176;-84
2022/04/13 05:27:53;;;;;;;2.83;1.40;;;;;;;12.43;52.28;95382.34;5072108;28;20201;-84
2022/04/13 05:30:18;;;;;;;7.70;1.83;;;;;;;12.41;52.96;95382.50;5051899;28;20180;-83
2022/04/13 05:32:58;;;;;;;5.33;1.37;;;;;;;12.49;53.61;95381.72;5068218;28;20326;-84
2022/04/13 05:35:25;;;;;;;2.53;1.60;;;;;;;12.48;53.69;95385.28;5071336;28;20236;-84
2022/04/13 05:37:51;;;;;;;4.70;1.63;;;;;;;12.58;53.96;95385.94;5044425;28;20206;-84
2022/04/13 05:40:16;;;;;;;4.73;1.63;;;;;;;12.69;53.19;95388.19;5042015;28;20192;-84
2022/04/13 05:42:41;;;;;;;7.23;1.70;;;;;;;12.90;52.46;95397.31;5052864;28;20182;-84
2022/04/13 05:45:07;;;;;;;4.27;1.53;;;;;;;13.02;51.89;95393.38;5051897;28;20538;-84
2022/04/13 05:47:33;;;;;;;1.83;1.47;;;;;;;13.06;52.44;95389.44;5061508;28;20291;-84
2022/04/13 05:49:58;;;;;;;3.47;1.70;;;;;;;13.21;52.92;95392.22;5061168;28;20217;-82
2022/04/13 05:52:23;;;;;;;4.37;1.50;;;;;;;13.59;52.05;95404.47;5043719;28;20186;-84
2022/04/13 05:54:49;;;;;;;3.13;1.37;;;;;;;13.71;51.85;95404.09;5050529;28;20186;-82
2022/04/13 05:57:14;;;;;;;4.23;1.60;;;;;;;13.78;52.76;95403.25;5052252;28;20198;-84
2022/04/13 05:59:40;;;;;;;5.10;2.03;;;;;;;13.92;53.10;95406.09;5052723;28;20181;-84
2022/04/13 06:02:05;;;;;;;3.97;1.70;;;;;;;14.11;53.25;95403.88;5062210;28;20254;-83
2022/04/13 06:04:30;;;;;;;4.37;1.60;;;;;;;14.15;53.59;95412.19;5070104;28;20185;-84
2022/04/13 06:06:56;;;;;;;7.53;1.83;;;;;;;14.13;54.04;95414.13;5052626;28;20228;-84
2022/04/13 06:09:22;;;;;;;6.03;1.57;;;;;;;14.52;53.60;95418.50;5039387;28;20585;-83
2022/04/13 06:11:51;;;;;;;4.00;1.40;;;;;;;14.64;52.75;95417.09;5062651;28;20590;-83
2022/04/13 06:14:16;;;;;;;3.90;1.80;;;;;;;14.84;52.55;95425.25;5060923;28;20177;-84
2022/04/13 06:16:42;;;;;;;3.43;1.40;;;;;;;14.70;52.42;95414.59;5050011;28;20258;-84
2022/04/13 06:19:07;;;;;;;5.03;1.67;;;;;;;14.58;51.74;95421.22;5045956;28;20267;-84
2022/04/13 06:21:32;;;;;;;4.43;1.77;;;;;;;14.89;51.31;95423.75;5047462;28;20192;-84
2022/04/13 06:23:58;;;;;;;15.00;2.37;;;;;;;14.50;52.23;95426.50;5045355;28;20216;-84
2022/04/13 06:26:23;;;;;;;4.77;1.77;;;;;;;14.86;51.24;95426.72;5044395;28;20320;-82
2022/04/13 06:28:48;;;;;;;3.03;1.87;;;;;;;14.98;50.69;95434.94;5058084;28;20204;-83
2022/04/13 06:31:14;;;;;;;2.97;1.60;;;;;;;14.92;51.08;95425.19;5057200;28;20537;-83
2022/04/13 06:33:39;;;;;;;4.40;1.90;;;;;;;15.10;49.99;95425.66;5052321;28;20715;-84
2022/04/13 06:36:08;;;;;;;4.83;2.03;;;;;;;15.06;51.07;95431.44;5053134;28;20201;-83
2022/04/13 06:38:34;;;;;;;5.27;2.00;;;;;;;15.02;51.18;95426.56;5041298;28;20247;-83
2022/04/13 06:40:59;;;;;;;3.57;1.83;;;;;;;15.16;51.47;95438.03;5055681;28;20672;-84
2022/04/13 06:43:24;;;;;;;6.33;1.90;;;;;;;15.41;50.15;95430.75;5047802;28;20653;-83
2022/04/13 06:45:52;;;;;;;4.50;1.90;;;;;;;15.62;49.42;95431.84;5053174;28;20181;-82
2022/04/13 06:48:18;;;;;;;5.23;1.87;;;;;;;15.76;49.36;95433.66;5046102;28;20197;-82
2022/04/13 06:50:43;;;;;;;4.00;1.87;;;;;;;16.17;48.32;95439.19;5036362;28;20228;-83
2022/04/13 06:53:08;;;;;;;5.67;2.10;;;;;;;16.39;47.24;95440.84;5039072;28;20243;-83
2022/04/13 06:55:37;;;;;;;5.27;1.80;;;;;;;16.63;46.30;95444.91;5052417;28;20727;-83
2022/04/13 06:58:02;;;;;;;6.17;2.10;;;;;;;16.66;46.32;95441.91;5066455;28;20212;-83
2022/04/13 07:00:28;;;;;;;3.83;1.43;;;;;;;17.02;45.42;95448.09;5056533;28;20178;-83
2022/04/13 07:02:57;;;;;;;3.77;1.70;;;;;;;17.09;44.99;95448.97;5068073;28;20185;-83
2022/04/13 07:05:23;;;;;;;5.40;1.80;;;;;;;17.23;44.70;95446.25;5056156;28;20668;-83
2022/04/13 07:07:48;;;;;;;4.72;1.67;;;;;;;17.59;43.79;95445.28;5042139;28;20557;-83
2022/04/13 07:10:14;;;;;;;5.65;1.55;;;;;;;17.71;43.52;95446.38;5053059;28;20231;-84
2022/04/13 07:12:39;;;;;;;3.33;1.88;;;;;;;17.93;42.76;95454.16;5066984;28;20177;-84
2022/04/13 07:15:05;;;;;;;9.20;1.60;;;;;;;17.81;43.31;95459.16;5056683;28;20204;-84
2022/04/13 07:17:30;;;;;;;7.20;1.95;;;;;;;17.92;42.85;95463.84;5071321;28;20572;-84
2022/04/13 07:19:56;;;;;;;3.72;1.85;;;;;;;18.08;42.89;95467.97;5060607;28;20177;-84
2022/04/13 07:22:21;;;;;;;3.47;1.60;;;;;;;18.10;42.37;95468.56;5048029;28;20173;-84
2022/04/13 07:24:46;;;;;;;1.65;1.30;;;;;;;18.22;42.17;95466.22;5063350;28;20192;-84
2022/04/13 07:27:12;;;;;;;5.18;1.67;;;;;;;18.18;41.38;95473.66;5054699;28;20614;-84
2022/04/13 07:29:37;;;;;;;6.15;2.00;;;;;;;18.30;40.51;95466.84;5050802;28;20189;-83
2022/04/13 07:32:03;;;;;;;4.72;1.80;;;;;;;18.13;42.54;95473.47;5054218;28;20184;-83
2022/04/13 07:34:28;;;;;;;3.63;1.50;;;;;;;18.22;42.77;95476.72;5055486;28;20194;-83
2022/04/13 07:36:53;;;;;;;6.22;1.65;;;;;;;18.40;40.79;95488.31;5067805;28;20251;-83
2022/04/13 07:39:18;;;;;;;5.75;1.63;;;;;;;18.13;36.52;95483.97;5056165;28;20186;-83
2022/04/13 07:41:44;;;;;;;4.90;1.45;;;;;;;18.22;35.63;95488.03;5048970;28;20220;-83
2022/04/13 07:44:11;;;;;;;4.60;1.65;;;;;;;18.20;36.19;95492.69;5049847;28;20220;-81
2022/04/13 07:46:36;;;;;;;4.53;1.50;;;;;;;18.40;37.39;95498.03;5053987;28;20196;-82
2022/04/13 07:49:03;;;;;;;6.18;2.00;;;;;;;18.20;41.38;95495.31;5038924;28;20255;-82
2022/04/13 07:51:28;;;;;;;5.97;2.40;;;;;;;18.40;40.17;95504.09;5049186;28;20232;-80
2022/04/13 07:53:54;;;;;;;3.00;1.48;;;;;;;18.25;36.39;95499.97;5053525;28;20572;-80
2022/04/13 07:56:19;;;;;;;4.82;1.88;;;;;;;17.98;36.51;95504.31;5041003;28;20213;-82
2022/04/13 07:58:44;;;;;;;4.82;1.30;;;;;;;18.20;37.49;95500.59;5051397;28;20575;-82
2022/04/13 08:01:09;;;;;;;3.58;1.60;;;;;;;18.26;36.33;95505.03;5049277;28;20182;-82
2022/04/13 08:03:35;;;;;;;4.15;1.60;;;;;;;17.97;37.06;95500.06;5049376;28;20299;-82
2022/04/13 08:06:02;;;;;;;3.75;1.70;;;;;;;18.15;35.50;95505.59;5058746;28;20175;-82
2022/04/13 08:08:28;;;;;;;7.95;1.75;;;;;;;18.27;35.31;95511.09;5039032;28;20178;-82
2022/04/13 08:10:53;;;;;;;4.72;1.58;;;;;;;18.37;34.34;95512.34;5054547;28;20182;-82
2022/04/13 08:13:18;;;;;;;7.18;1.25;;;;;;;18.30;34.27;95511.53;5046438;28;20486;-80
2022/04/13 08:15:43;;;;;;;4.13;1.20;;;;;;;18.17;34.47;95513.28;5037938;28;20244;-81
2022/04/13 08:18:09;;;;;;;3.72;1.60;;;;;;;17.95;34.89;95523.09;5048869;28;20209;-81
2022/04/13 08:20:34;;;;;;;3.20;1.20;;;;;;;18.19;35.03;95514.69;5063307;28;20712;-81
2022/04/13 08:22:59;;;;;;;7.18;1.40;;;;;;;18.15;35.80;95520.56;5035342;28;20186;-79
2022/04/13 08:25:25;;;;;;;6.20;1.58;;;;;;;18.23;35.44;95523.84;5068136;28;20181;-81
2022/04/13 08:27:50;;;;;;;4.97;1.73;;;;;;;18.20;36.25;95516.34;5047327;28;20201;-80
2022/04/13 08:30:15;;;;;;;5.65;1.73;;;;;;;18.24;36.44;95520.19;5059881;28;20701;-80
2022/04/13 08:32:41;;;;;;;4.45;1.55;;;;;;;18.00;38.14;95524.13;5049668;28;20636;-81
2022/04/13 08:35:09;;;;;;;5.07;1.63;;;;;;;18.40;38.34;95522.50;5036996;28;20201;-81
2022/04/13 08:37:35;;;;;;;9.75;2.38;;;;;;;18.19;38.03;95527.84;5070043;28;20209;-80
2022/04/13 08:40:00;;;;;;;4.68;1.50;;;;;;;18.35;37.80;95524.88;5061994;28;20178;-79
2022/04/13 08:42:45;;;;;;;2.40;1.70;;;;;;;18.58;38.33;95529.84;5057832;28;20209;-80
2022/04/13 08:45:22;;;;;;;3.67;2.03;;;;;;;18.55;37.41;95532.88;5051935;28;20185;-79
2022/04/13 08:47:49;;;;;;;8.40;1.58;;;;;;;19.00;38.19;95525.31;5051210;28;20354;-80
2022/04/13 08:50:14;;;;;;;7.43;1.50;;;;;;;18.77;36.91;95519.59;5041550;28;20170;-81
2022/04/13 08:52:40;;;;;;;4.57;1.63;;;;;;;18.48;36.14;95525.97;5049342;28;20181;-80
2022/04/13 08:55:07;;;;;;;8.57;1.70;;;;;;;18.38;35.98;95521.88;5053901;28;20194;-80
2022/04/13 08:57:38;;;;;;;5.22;1.60;;;;;;;18.62;34.69;95533.69;5052814;28;20208;-81
2022/04/13 09:00:08;;;;;;;4.03;1.50;;;;;;;18.58;35.22;95523.75;5044729;28;20174;-81
2022/04/13 09:03:11;;;;;;;4.70;1.45;;;;;;;18.82;35.13;95523.25;5053490;28;20189;-81
2022/04/13 09:05:37;;;;;;;4.00;1.50;;;;;;;18.73;36.36;95532.34;5052443;28;20185;-80
2022/04/13 09:08:05;;;;;;;7.85;1.77;;;;;;;18.61;35.57;95531.25;5045249;28;20236;-80
2022/04/13 09:10:34;;;;;;;9.13;1.42;;;;;;;18.73;35.73;95536.78;5063913;28;20169;-80
2022/04/13 09:12:59;;;;;;;6.95;1.73;;;;;;;18.95;35.05;95527.72;5067273;28;20669;-81
2022/04/13 09:15:25;;;;;;;6.00;1.85;;;;;;;18.76;35.35;95531.94;5060603;28;20193;-82
2022/04/13 09:17:50;;;;;;;8.52;1.60;;;;;;;18.81;34.87;95531.34;5050035;28;20237;-82
2022/04/13 09:20:16;;;;;;;9.65;1.55;;;;;;;18.81;35.45;95531.34;5058080;28;20208;-84
2022/04/13 09:22:42;;;;;;;4.65;1.80;;;;;;;18.76;36.17;95539.84;5044532;28;20223;-84
2022/04/13 09:25:08;;;;;;;4.13;1.45;;;;;;;18.44;35.58;95536.03;5052463;28;20281;-82
2022/04/13 09:27:36;;;;;;;4.65;1.38;;;;;;;18.86;35.17;95540.25;5068990;28;20209;-79
2022/04/13 09:30:01;;;;;;;9.30;1.90;;;;;;;19.06;35.91;95540.28;5070374;28;20222;-80
2022/04/13 09:32:26;;;;;;;6.55;2.03;;;;;;;19.33;34.77;95535.88;5045171;28;20178;-81
2022/04/13 09:34:53;;;;;;;13.18;2.03;;;;;;;19.21;35.82;95538.28;5050903;28;20181;-80
2022/04/13 09:37:19;;;;;;;13.13;2.20;;;;;;;19.41;36.19;95540.13;5058286;28;20212;-81
2022/04/13 09:39:45;;;;;;;8.93;1.90;;;;;;;19.59;36.03;95534.28;5050431;28;20185;-81
2022/04/13 09:42:12;;;;;;;17.05;2.28;;;;;;;19.50;36.54;95531.00;5048370;28;20178;-81
2022/04/13 09:44:40;;;;;;;12.30;1.90;;;;;;;19.73;36.08;95530.63;5035124;28;20182;-81
2022/04/13 09:47:07;;;;;;;15.65;2.17;;;;;;;19.91;35.59;95537.91;5052737;28;20201;-81
2022/04/13 09:49:32;;;;;;;3.75;1.77;;;;;;;20.08;34.36;95542.53;5050964;28;20261;-80
2022/04/13 09:51:57;;;;;;;5.57;1.80;;;;;;;19.30;35.38;95531.00;5051381;28;20197;-81
2022/04/13 09:54:23;;;;;;;5.88;1.58;;;;;;;19.40;35.22;95533.25;5034152;28;20207;-81
2022/04/13 09:56:49;;;;;;;9.23;2.00;;;;;;;19.40;34.46;95530.59;5034692;28;20266;-80
2022/04/13 09:59:31;;;;;;;7.85;1.98;;;;;;;19.55;34.37;95527.78;5070592;28;20231;-80
2022/04/13 10:01:57;;;;;;;2.80;1.48;;;;;;;19.37;35.89;95525.75;5068874;28;20543;-81
2022/04/13 10:04:30;;;;;;;5.10;1.83;;;;;;;19.25;36.31;95525.53;5071285;28;20185;-80
2022/04/13 10:07:18;;;;;;;3.85;1.92;;;;;;;19.28;36.63;95527.78;5046282;28;20881;-81
2022/04/13 10:09:44;;;;;;;5.35;1.80;;;;;;;19.48;35.61;95535.66;5050801;28;20177;-82
2022/04/13 10:12:09;;;;;;;4.20;1.65;;;;;;;19.69;35.53;95535.47;5054263;28;20193;-81
2022/04/13 10:14:35;;;;;;;7.80;1.50;;;;;;;19.78;36.13;95533.44;5050978;28;20174;-81
2022/04/13 10:17:12;;;;;;;6.20;1.88;;;;;;;19.91;34.57;95533.44;5058501;28;20300;-81
2022/04/13 10:19:38;;;;;;;3.60;1.65;;;;;;;19.95;36.38;95518.00;5053798;28;20184;-81
2022/04/13 10:22:04;;;;;;;4.80;1.80;;;;;;;19.90;35.62;95523.09;5047709;28;20181;-80
2022/04/13 10:24:34;;;;;;;5.30;1.60;;;;;;;19.79;36.31;95527.19;5046610;28;20661;-81
2022/04/13 10:26:59;;;;;;;5.65;1.75;;;;;;;19.47;35.61;95526.97;5050003;28;20736;-81
2022/04/13 10:29:26;;;;;;;4.65;1.60;;;;;;;19.38;35.86;95522.91;5050140;28;20185;-81
2022/04/13 10:32:06;;;;;;;7.15;1.80;;;;;;;19.93;34.33;95526.13;5064431;28;20573;-81
2022/04/13 10:34:33;;;;;;;5.22;1.90;;;;;;;19.80;35.48;95526.97;5052340;28;20192;-80
2022/04/13 10:36:59;;;;;;;6.28;1.75;;;;;;;20.17;34.13;95524.66;5050499;28;20258;-82
2022/04/13 10:39:24;;;;;;;3.53;1.55;;;;;;;20.33;35.51;95526.84;5049972;28;20178;-83
2022/04/13 10:41:49;;;;;;;7.00;1.50;;;;;;;20.42;33.43;95532.69;5055449;28;20200;-80
2022/04/13 10:44:23;;;;;;;6.15;1.63;;;;;;;20.54;33.68;95524.94;5049624;28;20169;-81
2022/04/13 10:46:52;;;;;;;6.70;1.50;;;;;;;20.23;33.91;95530.91;5049324;28;20660;-81
2022/04/13 10:49:21;;;;;;;6.75;1.63;;;;;;;20.36;32.83;95526.41;5055646;28;20189;-80
2022/04/13 10:51:50;;;;;;;4.53;1.60;;;;;;;20.46;34.09;95536.53;5061309;28;20989;-81
2022/04/13 10:54:17;;;;;;;7.50;1.70;;;;;;;20.17;33.29;95532.56;5033584;28;20227;-84
2022/04/13 10:56:44;;;;;;;6.90;1.50;;;;;;;20.25;33.04;95524.44;5033441;28;20206;-80
2022/04/13 10:59:18;;;;;;;4.50;1.98;;;;;;;20.45;34.69;95523.56;5066815;28;20193;-80
2022/04/13 11:01:58;;;;;;;3.65;1.67;;;;;;;20.37;35.50;95527.22;5045815;28;20293;-81
2022/04/13 11:04:27;;;;;;;4.47;1.50;;;;;;;20.73;33.47;95525.88;5033230;28;20300;-81
2022/04/13 11:06:52;;;;;;;5.97;1.77;;;;;;;20.57;33.65;95516.59;5034993;28;20198;-81
2022/04/13 11:09:25;;;;;;;5.93;1.70;;;;;;;20.53;33.23;95521.50;5032993;28;20272;-81
2022/04/13 11:11:51;;;;;;;4.07;1.55;;;;;;;20.92;33.58;95524.94;5033543;28;20547;-80
2022/04/13 11:14:21;;;;;;;5.72;1.88;;;;;;;20.93;32.71;95527.34;5050118;28;20256;-80
2022/04/13 11:16:46;;;;;;;7.05;1.75;;;;;;;21.09;32.09;95528.69;5049383;28;20206;-80
2022/04/13 11:19:12;;;;;;;3.70;1.67;;;;;;;21.07;32.00;95533.38;5053138;28;20238;-80
2022/04/13 11:21:52;;;;;;;5.65;1.50;;;;;;;20.85;31.68;95525.00;5053235;28;20205;-82
2022/04/13 11:24:34;;;;;;;4.53;1.67;;;;;;;20.70;32.81;95521.81;5054796;28;20235;-80
2022/04/13 11:27:00;;;;;;;4.82;1.50;;;;;;;20.38;32.24;95516.44;5054571;28;20198;-80
2022/04/13 11:29:32;;;;;;;5.45;1.55;;;;;;;20.50;30.84;95515.84;5036953;28;20265;-81
2022/04/13 11:32:01;;;;;;;13.77;2.28;;;;;;;20.86;32.64;95515.25;5094449;28;20189;-81